Time,TemperatureF,DewpointF,PressureIn,WindDirection,WindDirectionDegrees,WindSpeedMPH,WindSpeedGustMPH,Humidity,HourlyPrecipIn,Conditions,Clouds,dailyrainin,SolarRadiationWatts/m^2,SoftwareType,DateUTC
2013-08-23 00:21:00,70.0,40.0,-100.00,West,280,0.0,6.0,33,0.00,,,0.00,0.000000,,2013-08-23 06:21:00,
2013-08-23 00:32:00,70.0,40.0,-100.00,West,280,0.0,6.0,33,0.00,,,0.00,0.000000,,2013-08-23 06:32:00,
2013-08-23 00:41:00,70.0,40.0,-100.00,West,280,0.0,6.0,33,0.00,,,0.00,0.000000,,2013-08-23 06:41:00,
2013-08-23 00:52:00,70.0,40.0,-100.00,West,280,0.0,6.0,33,0.00,,,0.00,0.000000,,2013-08-23 06:52:00,
2013-08-23 01:22:00,68.0,42.0,-100.00,North,354,6.0,13.0,39,0.00,,,0.00,0.000000,,2013-08-23 07:22:00,
2013-08-23 01:32:00,68.0,42.0,-100.00,North,354,6.0,13.0,39,0.00,,,0.00,0.000000,,2013-08-23 07:32:00,
2013-08-23 01:42:00,68.0,42.0,-100.00,North,354,6.0,13.0,39,0.00,,,0.00,0.000000,,2013-08-23 07:42:00,
2013-08-23 01:52:00,68.0,42.0,-100.00,North,354,6.0,13.0,39,0.00,,,0.00,0.000000,,2013-08-23 07:52:00,
2013-08-23 02:22:00,66.0,45.0,-100.00,ESE,118,0.0,10.0,47,0.00,,,0.00,0.000000,,2013-08-23 08:22:00,
2013-08-23 02:32:00,66.0,45.0,-100.00,ESE,118,0.0,10.0,47,0.00,,,0.00,0.000000,,2013-08-23 08:32:00,
2013-08-23 02:42:00,66.0,45.0,-100.00,ESE,118,0.0,10.0,47,0.00,,,0.00,0.000000,,2013-08-23 08:42:00,
2013-08-23 02:52:00,66.0,45.0,-100.00,ESE,118,0.0,10.0,47,0.00,,,0.00,0.000000,,2013-08-23 08:52:00,
2013-08-23 03:21:00,66.0,46.0,-100.00,ENE,69,0.0,3.0,48,0.00,,,0.00,0.000000,,2013-08-23 09:21:00,
2013-08-23 03:33:00,66.0,46.0,-100.00,ENE,69,0.0,3.0,48,0.00,,,0.00,0.000000,,2013-08-23 09:33:00,
2013-08-23 03:43:00,66.0,46.0,-100.00,ENE,69,0.0,3.0,48,0.00,,,0.00,0.000000,,2013-08-23 09:43:00,
2013-08-23 03:53:00,66.0,46.0,-100.00,ENE,69,0.0,3.0,48,0.00,,,0.00,0.000000,,2013-08-23 09:53:00,
2013-08-23 04:22:00,63.0,47.0,-100.00,ENE,70,0.0,3.0,55,0.00,,,-99.99,0.000000,,2013-08-23 10:22:00,
2013-08-23 04:32:00,63.0,47.0,-100.00,ENE,70,0.0,3.0,55,0.00,,,-99.99,0.000000,,2013-08-23 10:32:00,
2013-08-23 04:42:00,63.0,47.0,-100.00,ENE,70,0.0,3.0,55,0.00,,,-99.99,0.000000,,2013-08-23 10:42:00,
2013-08-23 04:52:00,63.0,47.0,-100.00,ENE,70,0.0,3.0,55,0.00,,,-99.99,0.000000,,2013-08-23 10:52:00,
2013-08-23 05:22:00,64.0,44.0,-100.00,SSE,152,2.0,5.0,48,0.00,,,0.00,0.000000,,2013-08-23 11:22:00,
2013-08-23 05:33:00,64.0,44.0,-100.00,SSE,152,2.0,5.0,48,0.00,,,0.00,0.000000,,2013-08-23 11:33:00,
2013-08-23 05:42:00,64.0,44.0,-100.00,SSE,152,2.0,5.0,48,0.00,,,0.00,0.000000,,2013-08-23 11:42:00,
2013-08-23 06:22:00,62.0,43.0,-100.00,East,93,0.0,5.0,49,0.00,,,-99.99,0.000000,,2013-08-23 12:22:00,
2013-08-23 06:31:00,62.0,43.0,-100.00,East,93,0.0,5.0,49,0.00,,,-99.99,0.000000,,2013-08-23 12:31:00,
2013-08-23 06:42:00,62.0,43.0,-100.00,East,93,0.0,5.0,49,0.00,,,-99.99,0.000000,,2013-08-23 12:42:00,
2013-08-23 06:52:00,62.0,43.0,-100.00,East,93,0.0,5.0,49,0.00,,,-99.99,0.000000,,2013-08-23 12:52:00,
2013-08-23 07:22:00,62.0,45.0,-100.00,SW,224,2.0,3.0,53,-99.99,,,0.00,0.000000,,2013-08-23 13:22:00,
2013-08-23 07:32:00,62.0,45.0,-100.00,SW,224,2.0,3.0,53,-99.99,,,0.00,0.000000,,2013-08-23 13:32:00,
2013-08-23 07:42:00,62.0,45.0,-100.00,SW,224,2.0,3.0,53,-99.99,,,0.00,0.000000,,2013-08-23 13:42:00,
2013-08-23 07:52:00,62.0,45.0,-100.00,SW,224,2.0,3.0,53,-99.99,,,0.00,0.000000,,2013-08-23 13:52:00,
2013-08-23 08:21:00,62.0,45.0,-100.00,SE,124,3.0,12.0,53,0.00,,,0.00,17.000000,,2013-08-23 14:21:00,
2013-08-23 08:32:00,62.0,45.0,-100.00,SE,124,3.0,12.0,53,0.00,,,0.00,17.000000,,2013-08-23 14:32:00,
2013-08-23 08:42:00,62.0,45.0,-100.00,SE,124,3.0,12.0,53,0.00,,,0.00,17.000000,,2013-08-23 14:42:00,
2013-08-23 08:52:00,62.0,45.0,-100.00,SE,124,3.0,12.0,53,0.00,,,0.00,17.000000,,2013-08-23 14:52:00,
2013-08-23 09:22:00,61.0,45.0,-100.00,WSW,242,1.0,6.0,55,0.00,,,0.00,56.000000,,2013-08-23 15:22:00,
2013-08-23 09:33:00,61.0,45.0,-100.00,WSW,242,1.0,6.0,55,0.00,,,0.00,56.000000,,2013-08-23 15:33:00,
2013-08-23 09:43:00,61.0,45.0,-100.00,WSW,242,1.0,6.0,55,0.00,,,0.00,56.000000,,2013-08-23 15:43:00,
2013-08-23 09:54:00,61.0,45.0,-100.00,WSW,242,1.0,6.0,55,0.00,,,0.00,56.000000,,2013-08-23 15:54:00,
2013-08-23 10:24:00,63.0,50.0,-100.00,NNW,330,1.0,14.0,62,0.00,,,0.00,139.000000,,2013-08-23 16:24:00,
2013-08-23 10:34:00,63.0,50.0,-100.00,NNW,330,1.0,14.0,62,0.00,,,0.00,139.000000,,2013-08-23 16:34:00,
2013-08-23 10:42:00,63.0,50.0,-100.00,NNW,330,1.0,14.0,62,0.00,,,0.00,139.000000,,2013-08-23 16:42:00,
2013-08-23 10:53:00,63.0,50.0,-100.00,NNW,330,1.0,14.0,62,0.00,,,0.00,139.000000,,2013-08-23 16:53:00,
2013-08-23 11:23:00,63.0,47.0,-100.00,NW,320,2.0,5.0,56,0.00,,,0.00,219.000000,,2013-08-23 17:23:00,
2013-08-23 11:34:00,63.0,47.0,-100.00,NW,320,2.0,5.0,56,0.00,,,0.00,219.000000,,2013-08-23 17:34:00,
2013-08-23 11:42:00,63.0,47.0,-100.00,NW,320,2.0,5.0,56,0.00,,,0.00,219.000000,,2013-08-23 17:42:00,
2013-08-23 11:53:00,63.0,47.0,-100.00,NW,320,2.0,5.0,56,0.00,,,0.00,219.000000,,2013-08-23 17:53:00,
2013-08-23 12:42:00,71.0,47.0,-100.00,WSW,255,3.0,5.0,43,0.00,,,0.00,539.000000,,2013-08-23 18:42:00,
2013-08-23 12:52:00,71.0,47.0,-100.00,WSW,255,3.0,5.0,43,0.00,,,0.00,539.000000,,2013-08-23 18:52:00,
2013-08-23 13:22:00,75.0,43.0,-100.00,NNW,333,2.0,8.0,32,0.00,,,0.00,936.000000,,2013-08-23 19:22:00,
2013-08-23 13:32:00,75.0,43.0,-100.00,NNW,333,2.0,8.0,32,0.00,,,0.00,936.000000,,2013-08-23 19:32:00,
2013-08-23 13:42:00,75.0,43.0,-100.00,NNW,333,2.0,8.0,32,0.00,,,0.00,936.000000,,2013-08-23 19:42:00,
2013-08-23 13:52:00,75.0,43.0,-100.00,NNW,333,2.0,8.0,32,0.00,,,0.00,936.000000,,2013-08-23 19:52:00,
2013-08-23 14:22:00,78.0,43.0,-100.00,NW,323,6.0,13.0,29,0.00,,,0.00,962.000000,,2013-08-23 20:22:00,
2013-08-23 14:32:00,78.0,43.0,-100.00,NW,323,6.0,13.0,29,0.00,,,0.00,962.000000,,2013-08-23 20:32:00,
2013-08-23 14:42:00,78.0,43.0,-100.00,NW,323,6.0,13.0,29,0.00,,,0.00,962.000000,,2013-08-23 20:42:00,
2013-08-23 14:52:00,78.0,43.0,-100.00,NW,323,6.0,13.0,29,0.00,,,0.00,962.000000,,2013-08-23 20:52:00,
2013-08-23 15:21:00,80.0,41.0,-100.00,WNW,296,5.0,15.0,25,0.00,,,0.00,969.000000,,2013-08-23 21:21:00,
2013-08-23 15:34:00,80.0,41.0,-100.00,WNW,296,5.0,15.0,25,0.00,,,0.00,969.000000,,2013-08-23 21:34:00,
2013-08-23 15:43:00,80.0,41.0,-100.00,WNW,296,5.0,15.0,25,0.00,,,0.00,969.000000,,2013-08-23 21:43:00,
2013-08-23 15:54:00,80.0,41.0,-100.00,WNW,296,5.0,15.0,25,0.00,,,0.00,969.000000,,2013-08-23 21:54:00,
2013-08-23 16:24:00,81.0,41.0,-100.00,WNW,296,6.0,14.0,24,0.00,,,-99.99,901.000000,,2013-08-23 22:24:00,
2013-08-23 16:33:00,81.0,41.0,-100.00,WNW,296,6.0,14.0,24,0.00,,,-99.99,901.000000,,2013-08-23 22:33:00,
2013-08-23 16:43:00,81.0,41.0,-100.00,WNW,296,6.0,14.0,24,0.00,,,-99.99,901.000000,,2013-08-23 22:43:00,
2013-08-23 16:53:00,81.0,41.0,-100.00,WNW,296,6.0,14.0,24,0.00,,,-99.99,901.000000,,2013-08-23 22:53:00,
2013-08-23 17:22:00,79.0,41.0,-100.00,NW,319,5.0,16.0,26,0.00,,,0.00,684.000000,,2013-08-23 23:22:00,
2013-08-23 17:33:00,79.0,41.0,-100.00,NW,319,5.0,16.0,26,0.00,,,0.00,684.000000,,2013-08-23 23:33:00,
2013-08-23 17:43:00,79.0,41.0,-100.00,NW,319,5.0,16.0,26,0.00,,,0.00,684.000000,,2013-08-23 23:43:00,
2013-08-23 17:54:00,79.0,41.0,-100.00,NW,319,5.0,16.0,26,0.00,,,0.00,684.000000,,2013-08-23 23:54:00,
2013-08-23 18:21:00,79.0,43.0,-100.00,NW,324,5.0,10.0,28,0.00,,,0.00,429.000000,,2013-08-24 00:21:00,
2013-08-23 18:32:00,79.0,43.0,-100.00,NW,324,5.0,10.0,28,0.00,,,0.00,429.000000,,2013-08-24 00:32:00,
2013-08-23 18:43:00,79.0,43.0,-100.00,NW,324,5.0,10.0,28,0.00,,,0.00,429.000000,,2013-08-24 00:43:00,
2013-08-23 18:53:00,79.0,43.0,-100.00,NW,324,5.0,10.0,28,0.00,,,0.00,429.000000,,2013-08-24 00:53:00,
2013-08-23 19:22:00,78.0,43.0,-100.00,WSW,251,3.0,15.0,29,0.00,,,0.00,208.000000,,2013-08-24 01:22:00,
2013-08-23 19:32:00,78.0,43.0,-100.00,WSW,251,3.0,15.0,29,0.00,,,0.00,208.000000,,2013-08-24 01:32:00,
2013-08-23 19:42:00,78.0,43.0,-100.00,WSW,251,3.0,15.0,29,0.00,,,0.00,208.000000,,2013-08-24 01:42:00,
2013-08-23 19:53:00,78.0,43.0,-100.00,WSW,251,3.0,15.0,29,0.00,,,0.00,208.000000,,2013-08-24 01:53:00,
2013-08-23 20:22:00,74.0,43.0,-100.00,NW,311,0.0,9.0,33,0.00,,,0.00,141.000000,,2013-08-24 02:22:00,
2013-08-23 20:32:00,74.0,43.0,-100.00,NW,311,0.0,9.0,33,0.00,,,0.00,141.000000,,2013-08-24 02:32:00,
2013-08-23 20:42:00,74.0,43.0,-100.00,NW,311,0.0,9.0,33,0.00,,,0.00,141.000000,,2013-08-24 02:42:00,
2013-08-23 20:52:00,74.0,43.0,-100.00,NW,311,0.0,9.0,33,0.00,,,0.00,141.000000,,2013-08-24 02:52:00,
2013-08-23 21:22:00,69.0,42.0,-100.00,NW,306,0.0,5.0,37,0.00,,,0.00,17.000000,,2013-08-24 03:22:00,
2013-08-23 21:34:00,69.0,42.0,-100.00,NW,306,0.0,5.0,37,0.00,,,0.00,17.000000,,2013-08-24 03:34:00,
2013-08-23 21:44:00,69.0,42.0,-100.00,NW,306,0.0,5.0,37,0.00,,,0.00,17.000000,,2013-08-24 03:44:00,
2013-08-23 21:54:00,69.0,42.0,-100.00,NW,306,0.0,5.0,37,0.00,,,0.00,17.000000,,2013-08-24 03:54:00,
2013-08-23 22:24:00,68.0,44.0,-100.00,ENE,77,2.0,9.0,42,0.00,,,0.00,0.000000,,2013-08-24 04:24:00,
2013-08-23 22:34:00,68.0,44.0,-100.00,ENE,77,2.0,9.0,42,0.00,,,0.00,0.000000,,2013-08-24 04:34:00,
2013-08-23 22:44:00,68.0,44.0,-100.00,ENE,77,2.0,9.0,42,0.00,,,0.00,0.000000,,2013-08-24 04:44:00,
2013-08-23 22:53:00,68.0,44.0,-100.00,ENE,77,2.0,9.0,42,0.00,,,0.00,0.000000,,2013-08-24 04:53:00,
2013-08-23 23:23:00,65.0,43.0,-100.00,ESE,115,0.0,7.0,44,0.00,,,0.00,0.000000,,2013-08-24 05:23:00,
2013-08-23 23:33:00,65.0,43.0,-100.00,ESE,115,0.0,7.0,44,0.00,,,0.00,0.000000,,2013-08-24 05:33:00,
2013-08-23 23:43:00,65.0,43.0,-100.00,ESE,115,0.0,7.0,44,0.00,,,0.00,0.000000,,2013-08-24 05:43:00,
2013-08-23 23:53:00,65.0,43.0,-100.00,ESE,115,0.0,7.0,44,0.00,,,0.00,0.000000,,2013-08-24 05:53:00,